Main page
METAR-TAF:

METAR-TAF

Airports :

Milan, Italy

Linate Airport

latitude: 45-26N, longitude: 009-17E, elevation: 107 m

Current weather observation

The report was made 27 minutes ago, at 23:50 UTC
Wind 7 kt from the East/Northeast
Temperature 3°C
Humidity 81%
Pressure 1018 hPa
Visibility 10 km or more
no clouds below 1500 m and no cumulonimbus

METAR: LIML 192350Z 06007KT CAVOK 03/00 Q1018 NOSIG

Time: 01:17 (00:17 UTC)

Forecast

The report was made 1 hour and 17 minutes ago, at 23:00 UTC
Forecast valid from 20 at 00 UTC to 20 at 24 UTC
Wind 5 kt from variable directions
Visibility: 7000 m
Temporary
from 20 at 00 UTC to 20 at 08 UTC
Visibility: 2000 m
patches of fog
Temporary
from 20 at 00 UTC to 20 at 07 UTC
Visibility: 0500 m
fog
Becoming
from 20 at 08 UTC to 20 at 10 UTC
Visibility: 6000 m

TAF: LIML 192300Z 2000/2024 VRB05KT 7000 NSC TEMPO 2000/2008 2000 BCFG TEMPO 2000/2007 0500 FG BECMG 2008/2010 6000

Weather observations and forecasts of more than 4000 airports (METAR and TAF reports).

The available stations are represented by yellow and red dots on the map.

Hover mouse over dot to see the name of the station.

Then click to see weather observations and forecasts.

To change the map : click on the green buttons with a black cross to zoom in, on the green button with a dash to zoom out, or on the green arrows for adjacent maps.


METAR-TAF: